Data Viewer
| City | State | Eastern Time | Source | Temp | DewPt | RH | BP | 5 Min Precip | Wind Speed | Wind Dir | 5 Min Wind Max | 5 Min Wind Max Dir |
|---|---|---|---|---|---|---|---|---|---|---|---|---|
| Reading | PA | 2026-05-04 12:25 | ASOS | 70 | 37 | 31 | 29.87 | 14 | WSW | |||
| Reading | PA | 2026-05-05 04:20 | ASOS | 63 | 46 | 55 | 29.81 | 3 | N | |||
| Reading | PA | 2026-05-05 04:50 | ASOS | 61 | 46 | 59 | 29.82 | 3 | NW | |||
| Reading | PA | 2026-05-05 04:45 | ASOS | 63 | 46 | 55 | 29.82 | 0 | N | |||
| Reading | PA | 2026-05-05 04:40 | ASOS | 63 | 46 | 55 | 29.82 | 0 | N | |||
| Reading | PA | 2026-05-05 04:35 | ASOS | 63 | 46 | 55 | 29.81 | 0 | N | |||
| Reading | PA | 2026-05-05 04:30 | ASOS | 63 | 46 | 55 | 29.81 | 0 | N | |||
| Reading | PA | 2026-05-05 04:25 | ASOS | 63 | 46 | 55 | 29.81 | 3 | NE | |||
| Reading | PA | 2026-05-05 04:15 | ASOS | 63 | 46 | 55 | 29.81 | 5 | NNW | |||
| Reading | PA | 2026-05-05 04:55 | ASOS | 61 | 46 | 59 | 29.82 | 0 | N | |||
| Reading | PA | 2026-05-05 04:10 | ASOS | 63 | 46 | 55 | 29.81 | 5 | NW | |||
| Reading | PA | 2026-05-05 04:05 | ASOS | 64 | 46 | 52 | 29.81 | 3 | NW | |||
| Reading | PA | 2026-05-05 04:00 | ASOS | 63 | 46 | 55 | 29.81 | 0 | N | |||
| Reading | PA | 2026-05-05 03:54 | ASOS | 64 | 46 | 52 | 29.81 | 0 | N | |||
| Reading | PA | 2026-05-05 03:50 | ASOS | 64 | 46 | 52 | 29.81 | 3 | S | |||
| Reading | PA | 2026-05-05 03:45 | ASOS | 64 | 46 | 52 | 29.81 | 5 | SSE | |||
| Reading | PA | 2026-05-05 04:54 | ASOS | 61 | 46 | 58 | 29.82 | 0 | N | |||
| Reading | PA | 2026-05-05 05:00 | ASOS | 63 | 46 | 55 | 29.82 | 3 | NNW | |||
| Reading | PA | 2026-05-05 03:35 | ASOS | 64 | 46 | 52 | 29.81 | 5 | SE | |||
| Reading | PA | 2026-05-05 05:50 | ASOS | 61 | 46 | 59 | 29.82 | 5 | SSW | |||
| Reading | PA | 2026-05-05 06:20 | ASOS | 61 | 46 | 59 | 29.83 | 6 | SSW | |||
| Reading | PA | 2026-05-05 06:15 | ASOS | 61 | 46 | 59 | 29.83 | 3 | SSW | |||
| Reading | PA | 2026-05-05 06:10 | ASOS | 63 | 46 | 55 | 29.82 | 5 | SSW | |||
| Reading | PA | 2026-05-05 06:05 | ASOS | 63 | 46 | 55 | 29.82 | 5 | SSW | |||
| Reading | PA | 2026-05-05 06:00 | ASOS | 63 | 46 | 55 | 29.82 | 3 | SSW | |||
| Reading | PA | 2026-05-05 05:55 | ASOS | 61 | 46 | 59 | 29.82 | 3 | SSW | |||
| Reading | PA | 2026-05-05 05:45 | ASOS | 63 | 46 | 55 | 29.82 | 5 | SW | |||
| Reading | PA | 2026-05-05 05:05 | ASOS | 61 | 46 | 59 | 29.82 | 0 | N | |||
| Reading | PA | 2026-05-05 05:40 | ASOS | 63 | 46 | 55 | 29.82 | 6 | SW | |||
| Reading | PA | 2026-05-05 05:35 | ASOS | 61 | 46 | 59 | 29.82 | 7 | SW | |||
| Reading | PA | 2026-05-05 05:30 | ASOS | 63 | 46 | 55 | 29.82 | 6 | SSW | |||
| Reading | PA | 2026-05-05 05:25 | ASOS | 59 | 46 | 63 | 29.82 | 3 | SSW | |||
| Reading | PA | 2026-05-05 05:20 | ASOS | 59 | 46 | 63 | 29.82 | 7 | SSW | |||
| Reading | PA | 2026-05-05 05:10 | ASOS | 61 | 46 | 59 | 29.82 | 0 | N | |||
| Reading | PA | 2026-05-05 03:40 | ASOS | 64 | 46 | 52 | 29.81 | 6 | SSE | |||
| Reading | PA | 2026-05-05 03:30 | ASOS | 64 | 46 | 52 | 29.81 | 5 | S | |||
| Reading | PA | 2026-05-05 06:30 | ASOS | 61 | 46 | 59 | 29.83 | 5 | SSW | |||
| Reading | PA | 2026-05-05 01:30 | ASOS | 64 | 44 | 49 | 29.81 | 7 | SSW | |||
| Reading | PA | 2026-05-05 01:55 | ASOS | 64 | 46 | 52 | 29.82 | 5 | SW | |||
| Reading | PA | 2026-05-05 01:54 | ASOS | 64 | 46 | 52 | 29.82 | 5 | SW | |||
| Reading | PA | 2026-05-05 01:50 | ASOS | 64 | 44 | 49 | 29.82 | 5 | SSW | |||
| Reading | PA | 2026-05-05 01:45 | ASOS | 64 | 44 | 49 | 29.81 | 3 | SW | |||
| Reading | PA | 2026-05-05 01:40 | ASOS | 64 | 44 | 49 | 29.81 | 3 | SW | |||
| Reading | PA | 2026-05-05 01:35 | ASOS | 64 | 44 | 49 | 29.81 | 3 | SW | |||
| Reading | PA | 2026-05-05 01:25 | ASOS | 64 | 44 | 49 | 29.81 | 6 | S | |||
| Reading | PA | 2026-05-05 02:05 | ASOS | 64 | 46 | 52 | 29.82 | 3 | N | |||
| Reading | PA | 2026-05-05 01:20 | ASOS | 64 | 44 | 49 | 29.81 | 8 | S | |||
| Reading | PA | 2026-05-05 01:15 | ASOS | 64 | 44 | 49 | 29.81 | 12 | SSW | |||
| Reading | PA | 2026-05-05 01:05 | ASOS | 64 | 44 | 49 | 29.80 | 12 | S | |||
| Reading | PA | 2026-05-05 01:00 | ASOS | 64 | 44 | 49 | 29.80 | 10 | S | |||
| Reading | PA | 2026-05-05 00:55 | ASOS | 64 | 44 | 49 | 29.80 | 12 | S | |||
| Reading | PA | 2026-05-05 00:54 | ASOS | 65 | 44 | 47 | 29.81 | 13 | SSW | |||
| Reading | PA | 2026-05-05 02:00 | ASOS | 64 | 46 | 52 | 29.82 | 3 | NW | |||
| Reading | PA | 2026-05-05 02:10 | ASOS | 63 | 46 | 55 | 29.82 | 0 | N | |||
| Reading | PA | 2026-05-05 03:25 | ASOS | 63 | 46 | 55 | 29.81 | 6 | S | |||
| Reading | PA | 2026-05-05 02:54 | ASOS | 63 | 46 | 54 | 29.82 | 0 | N | |||
| Reading | PA | 2026-05-05 03:20 | ASOS | 63 | 46 | 55 | 29.81 | 5 | S | |||
| Reading | PA | 2026-05-05 03:15 | ASOS | 63 | 46 | 55 | 29.81 | 6 | S | |||
| Reading | PA | 2026-05-05 03:10 | ASOS | 63 | 46 | 55 | 29.82 | 5 | S | |||
| Reading | PA | 2026-05-05 03:05 | ASOS | 63 | 46 | 55 | 29.82 | 3 | S | |||
| Reading | PA | 2026-05-05 03:00 | ASOS | 63 | 46 | 55 | 29.82 | 6 | SSW | |||
| Reading | PA | 2026-05-05 02:55 | ASOS | 63 | 46 | 55 | 29.82 | 0 | N | |||
| Reading | PA | 2026-05-05 02:50 | ASOS | 63 | 46 | 55 | 29.82 | 0 | N | |||
| Reading | PA | 2026-05-05 02:15 | ASOS | 63 | 46 | 55 | 29.82 | 0 | N | |||
| Reading | PA | 2026-05-05 02:45 | ASOS | 64 | 46 | 52 | 29.82 | 0 | N | |||
| Reading | PA | 2026-05-05 02:40 | ASOS | 64 | 46 | 52 | 29.82 | 0 | N | |||
| Reading | PA | 2026-05-05 02:35 | ASOS | 63 | 46 | 55 | 29.82 | 0 | N | |||
| Reading | PA | 2026-05-05 02:30 | ASOS | 64 | 46 | 52 | 29.82 | 0 | N | |||
| Reading | PA | 2026-05-05 02:25 | ASOS | 64 | 46 | 52 | 29.82 | 3 | SSW | |||
| Reading | PA | 2026-05-05 02:20 | ASOS | 63 | 44 | 52 | 29.82 | 0 | N | |||
| Reading | PA | 2026-05-05 06:25 | ASOS | 61 | 46 | 59 | 29.83 | 5 | SSW | |||
| Reading | PA | 2026-05-05 06:35 | ASOS | 61 | 46 | 59 | 29.83 | 9 | SSW | |||
| Reading | PA | 2026-05-05 00:45 | ASOS | 64 | 43 | 45 | 29.80 | 10 | SSW | |||
| Reading | PA | 2026-05-05 10:15 | ASOS | 75 | 50 | 41 | 29.83 | 8 | SW | |||
| Reading | PA | 2026-05-05 10:45 | ASOS | 77 | 52 | 41 | 29.82 | 12 | SW | |||
| Reading | PA | 2026-05-05 10:40 | ASOS | 77 | 50 | 39 | 29.82 | 14 | SSW | |||
| Reading | PA | 2026-05-05 10:35 | ASOS | 77 | 50 | 39 | 29.82 | 9 | SW | |||
| Reading | PA | 2026-05-05 10:30 | ASOS | 75 | 48 | 39 | 29.82 | 13 | SW | |||
| Reading | PA | 2026-05-05 10:25 | ASOS | 75 | 50 | 41 | 29.82 | 12 | WSW | |||
| Reading | PA | 2026-05-05 10:20 | ASOS | 75 | 52 | 44 | 29.83 | 10 | SSW | |||
| Reading | PA | 2026-05-05 10:10 | ASOS | 73 | 50 | 44 | 29.83 | 13 | SW | |||
| Reading | PA | 2026-05-05 10:54 | ASOS | 77 | 50 | 39 | 29.82 | 10 | SW | |||
| Reading | PA | 2026-05-05 10:05 | ASOS | 73 | 50 | 44 | 29.83 | 13 | SSW | |||
| Reading | PA | 2026-05-05 10:00 | ASOS | 73 | 50 | 44 | 29.83 | 10 | SSW | |||
| Reading | PA | 2026-05-05 09:55 | ASOS | 73 | 50 | 44 | 29.83 | 9 | SW | |||
| Reading | PA | 2026-05-05 09:54 | ASOS | 73 | 50 | 44 | 29.83 | 10 | SW | |||
| Reading | PA | 2026-05-05 09:50 | ASOS | 73 | 50 | 44 | 29.83 | 10 | SW | |||
| Reading | PA | 2026-05-05 09:45 | ASOS | 72 | 48 | 43 | 29.84 | 9 | WSW | |||
| Reading | PA | 2026-05-05 10:50 | ASOS | 77 | 52 | 41 | 29.82 | 15 | SW | |||
| Reading | PA | 2026-05-05 10:55 | ASOS | 77 | 50 | 39 | 29.82 | 12 | SSW | |||
| Reading | PA | 2026-05-05 09:35 | ASOS | 72 | 50 | 47 | 29.84 | 9 | WSW | |||
| Reading | PA | 2026-05-05 11:40 | ASOS | 81 | 50 | 35 | 29.81 | 15 | SW | |||
| Reading | PA | 2026-05-05 12:05 | ASOS | 81 | 48 | 32 | 29.80 | 15 | SW | |||
| Reading | PA | 2026-05-05 12:00 | ASOS | 82 | 48 | 30 | 29.80 | 17 | W | |||
| Reading | PA | 2026-05-05 11:55 | ASOS | 81 | 50 | 35 | 29.80 | 15 | SW | |||
| Reading | PA | 2026-05-05 11:54 | ASOS | 81 | 49 | 33 | 29.80 | 16 | SW | |||
| Reading | PA | 2026-05-05 11:50 | ASOS | 81 | 48 | 32 | 29.80 | 20 | SW | |||
| Reading | PA | 2026-05-05 11:45 | ASOS | 81 | 50 | 35 | 29.80 | 17 | WSW | |||
| Reading | PA | 2026-05-05 11:35 | ASOS | 81 | 52 | 37 | 29.81 | 15 | WSW | |||
| Reading | PA | 2026-05-05 11:00 | ASOS | 79 | 52 | 39 | 29.82 | 12 | SW | |||
| Reading | PA | 2026-05-05 11:30 | ASOS | 81 | 50 | 35 | 29.81 | 13 | SW | |||
| Reading | PA | 2026-05-05 11:25 | ASOS | 81 | 50 | 35 | 29.81 | 14 | SW | |||
| Reading | PA | 2026-05-05 11:20 | ASOS | 81 | 52 | 37 | 29.81 | 15 | WSW | |||
| Reading | PA | 2026-05-05 11:15 | ASOS | 81 | 52 | 37 | 29.81 | 12 | SW | |||
| Reading | PA | 2026-05-05 11:10 | ASOS | 79 | 52 | 39 | 29.81 | 9 | SW | |||
| Reading | PA | 2026-05-05 11:05 | ASOS | 79 | 52 | 39 | 29.81 | 12 | WSW | |||
| Reading | PA | 2026-05-05 09:40 | ASOS | 72 | 48 | 43 | 29.84 | 12 | SW | |||
| Reading | PA | 2026-05-05 09:30 | ASOS | 72 | 48 | 43 | 29.85 | 10 | SW | |||
| Reading | PA | 2026-05-05 06:40 | ASOS | 63 | 46 | 55 | 29.83 | 7 | SSW | |||
| Reading | PA | 2026-05-05 07:15 | ASOS | 63 | 48 | 59 | 29.84 | 3 | S | |||
| Reading | PA | 2026-05-05 07:50 | ASOS | 64 | 48 | 56 | 29.85 | 5 | SSW | |||
| Reading | PA | 2026-05-05 07:40 | ASOS | 64 | 48 | 56 | 29.85 | 6 | SW | |||
| Reading | PA | 2026-05-05 07:35 | ASOS | 64 | 48 | 56 | 29.85 | 3 | SW | |||
| Reading | PA | 2026-05-05 07:30 | ASOS | 64 | 48 | 56 | 29.85 | 5 | SW | |||
| Reading | PA | 2026-05-05 07:25 | ASOS | 64 | 48 | 56 | 29.84 | 6 | SW | |||
| Reading | PA | 2026-05-05 07:20 | ASOS | 64 | 48 | 56 | 29.84 | 5 | S | |||
| Reading | PA | 2026-05-05 07:10 | ASOS | 63 | 48 | 59 | 29.84 | 5 | SSW | |||
| Reading | PA | 2026-05-05 08:00 | ASOS | 66 | 48 | 52 | 29.85 | 5 | SSW | |||
| Reading | PA | 2026-05-05 07:05 | ASOS | 63 | 48 | 59 | 29.84 | 5 | SSW | |||
| Reading | PA | 2026-05-05 07:00 | ASOS | 63 | 48 | 59 | 29.83 | 3 | SSW | |||
| Reading | PA | 2026-05-05 06:55 | ASOS | 63 | 48 | 59 | 29.83 | 6 | SSW | |||
| Reading | PA | 2026-05-05 06:54 | ASOS | 62 | 48 | 60 | 29.83 | 5 | S | |||
| Reading | PA | 2026-05-05 06:50 | ASOS | 63 | 48 | 59 | 29.83 | 6 | S | |||
| Reading | PA | 2026-05-05 06:45 | ASOS | 61 | 48 | 63 | 29.83 | 6 | SSW | |||
| Reading | PA | 2026-05-05 07:54 | ASOS | 66 | 49 | 54 | 29.85 | 3 | SW | |||
| Reading | PA | 2026-05-05 08:05 | ASOS | 66 | 48 | 52 | 29.85 | 3 | SW | |||
| Reading | PA | 2026-05-05 09:25 | ASOS | 72 | 50 | 47 | 29.85 | 8 | WSW | |||
| Reading | PA | 2026-05-05 08:54 | ASOS | 69 | 50 | 51 | 29.86 | 7 | ||||
| Reading | PA | 2026-05-05 09:20 | ASOS | 72 | 52 | 50 | 29.85 | 8 | WSW | |||
| Reading | PA | 2026-05-05 09:15 | ASOS | 72 | 50 | 47 | 29.85 | 6 | SSW | |||
| Reading | PA | 2026-05-05 09:10 | ASOS | 72 | 48 | 43 | 29.85 | 6 | SW | |||
| Reading | PA | 2026-05-05 09:05 | ASOS | 70 | 50 | 49 | 29.85 | 6 | WSW | |||
| Reading | PA | 2026-05-05 09:00 | ASOS | 70 | 50 | 49 | 29.85 | 5 | SW | |||
| Reading | PA | 2026-05-05 08:55 | ASOS | 70 | 50 | 49 | 29.85 | 7 | SSW | |||
| Reading | PA | 2026-05-05 08:50 | ASOS | 70 | 48 | 46 | 29.85 | 6 | SSW | |||
| Reading | PA | 2026-05-05 08:10 | ASOS | 66 | 48 | 52 | 29.85 | 6 | SSW | |||
| Reading | PA | 2026-05-05 08:45 | ASOS | 70 | 48 | 46 | 29.85 | 8 | SSW | |||
| Reading | PA | 2026-05-05 08:40 | ASOS | 70 | 48 | 46 | 29.85 | 9 | SSW | |||
| Reading | PA | 2026-05-05 08:35 | ASOS | 68 | 48 | 49 | 29.86 | 8 | SSW | |||
| Reading | PA | 2026-05-05 08:30 | ASOS | 68 | 48 | 49 | 29.86 | 8 | SSW | |||
| Reading | PA | 2026-05-05 08:25 | ASOS | 68 | 48 | 49 | 29.85 | 9 | SSW | |||
| Reading | PA | 2026-05-05 08:20 | ASOS | 66 | 48 | 52 | 29.85 | 7 | SSW | |||
| Reading | PA | 2026-05-05 08:15 | ASOS | 66 | 48 | 52 | 29.85 | 6 | S | |||
| Reading | PA | 2026-05-05 00:50 | ASOS | 64 | 44 | 49 | 29.80 | 13 | SSW | |||
| Reading | PA | 2026-05-05 00:40 | ASOS | 64 | 43 | 45 | 29.80 | 10 | SSW | |||
| Reading | PA | 2026-05-04 12:30 | ASOS | 70 | 39 | 33 | 29.87 | 13 | SW | |||
| Reading | PA | 2026-05-04 16:15 | ASOS | 75 | 41 | 29 | 29.78 | 18 | SSW | |||
| Reading | PA | 2026-05-04 16:45 | ASOS | 75 | 39 | 27 | 29.78 | 16 | SSW | |||
| Reading | PA | 2026-05-04 16:40 | ASOS | 75 | 43 | 31 | 29.78 | 16 | WSW | |||
| Reading | PA | 2026-05-04 16:35 | ASOS | 75 | 41 | 29 | 29.78 | 15 | SSW | |||
| Reading | PA | 2026-05-04 16:30 | ASOS | 75 | 39 | 27 | 29.78 | 14 | SSW | |||
| Reading | PA | 2026-05-04 16:25 | ASOS | 75 | 41 | 29 | 29.78 | 15 | SSW | |||
| Reading | PA | 2026-05-04 16:20 | ASOS | 75 | 39 | 27 | 29.78 | 15 | WSW | |||
| Reading | PA | 2026-05-04 16:10 | ASOS | 75 | 39 | 27 | 29.79 | 15 | SW | |||
| Reading | PA | 2026-05-04 16:55 | ASOS | 75 | 41 | 29 | 29.78 | 13 | SSW | |||
| Reading | PA | 2026-05-04 16:05 | ASOS | 75 | 39 | 27 | 29.79 | 16 | SW | |||
| Reading | PA | 2026-05-04 16:00 | ASOS | 73 | 39 | 29 | 29.79 | 17 | SSW | |||
| Reading | PA | 2026-05-04 15:54 | ASOS | 74 | 41 | 31 | 29.79 | 16 | SSW | |||
| Reading | PA | 2026-05-04 15:50 | ASOS | 73 | 39 | 29 | 29.79 | 14 | SSW | |||
| Reading | PA | 2026-05-04 15:45 | ASOS | 73 | 39 | 29 | 29.80 | 15 | SW | |||
| Reading | PA | 2026-05-04 15:40 | ASOS | 75 | 39 | 27 | 29.80 | 18 | SSW | |||
| Reading | PA | 2026-05-04 16:54 | ASOS | 75 | 41 | 29 | 29.78 | 15 | SSW | |||
| Reading | PA | 2026-05-04 17:00 | ASOS | 75 | 41 | 29 | 29.77 | 9 | SSW | |||
| Reading | PA | 2026-05-04 15:30 | ASOS | 73 | 39 | 29 | 29.80 | 12 | SSW | |||
| Reading | PA | 2026-05-04 17:45 | ASOS | 75 | 41 | 29 | 29.77 | 13 | WSW | |||
| Reading | PA | 2026-05-04 18:10 | ASOS | 75 | 39 | 27 | 29.77 | 15 | SSW | |||
| Reading | PA | 2026-05-04 18:05 | ASOS | 75 | 39 | 27 | 29.77 | 10 | SW | |||
| Reading | PA | 2026-05-04 18:00 | ASOS | 75 | 41 | 29 | 29.77 | 9 | SSW | |||
| Reading | PA | 2026-05-04 17:55 | ASOS | 75 | 41 | 29 | 29.77 | 10 | SSW | |||
| Reading | PA | 2026-05-04 17:54 | ASOS | 75 | 40 | 28 | 29.77 | 13 | SW | |||
| Reading | PA | 2026-05-04 17:50 | ASOS | 75 | 39 | 27 | 29.77 | 12 | WSW | |||
| Reading | PA | 2026-05-04 17:40 | ASOS | 75 | 39 | 27 | 29.77 | 12 | SW | |||
| Reading | PA | 2026-05-04 17:05 | ASOS | 75 | 41 | 29 | 29.77 | 17 | SSW | |||
| Reading | PA | 2026-05-04 17:35 | ASOS | 75 | 39 | 27 | 29.77 | 13 | SW | |||
| Reading | PA | 2026-05-04 17:30 | ASOS | 75 | 39 | 27 | 29.77 | 9 | SSW | |||
| Reading | PA | 2026-05-04 17:25 | ASOS | 75 | 39 | 27 | 29.77 | 15 | SW | |||
| Reading | PA | 2026-05-04 17:20 | ASOS | 75 | 39 | 27 | 29.77 | 12 | SW | |||
| Reading | PA | 2026-05-04 17:15 | ASOS | 75 | 41 | 29 | 29.77 | 14 | SW | |||
| Reading | PA | 2026-05-04 17:10 | ASOS | 75 | 39 | 27 | 29.77 | 12 | SSW | |||
| Reading | PA | 2026-05-04 15:35 | ASOS | 73 | 39 | 29 | 29.80 | 13 | WSW | |||
| Reading | PA | 2026-05-04 15:25 | ASOS | 75 | 39 | 27 | 29.80 | 21 | SW | |||
| Reading | PA | 2026-05-04 18:20 | ASOS | 73 | 39 | 29 | 29.76 | 12 | S | |||
| Reading | PA | 2026-05-04 13:15 | ASOS | 72 | 39 | 31 | 29.85 | 12 | WSW | |||
| Reading | PA | 2026-05-04 13:45 | ASOS | 72 | 39 | 31 | 29.84 | 16 | WSW | |||
| Reading | PA | 2026-05-04 13:40 | ASOS | 73 | 39 | 29 | 29.84 | 17 | WSW | |||
| Reading | PA | 2026-05-04 13:35 | ASOS | 73 | 41 | 31 | 29.84 | 15 | SSW | |||
| Reading | PA | 2026-05-04 13:30 | ASOS | 73 | 39 | 29 | 29.84 | 13 | SW | |||
| Reading | PA | 2026-05-04 13:25 | ASOS | 72 | 39 | 31 | 29.85 | 13 | WSW | |||
| Reading | PA | 2026-05-04 13:20 | ASOS | 73 | 41 | 31 | 29.85 | 16 | WSW | |||
| Reading | PA | 2026-05-04 13:05 | ASOS | 72 | 39 | 31 | 29.86 | 21 | SW | |||
| Reading | PA | 2026-05-04 13:54 | ASOS | 73 | 40 | 30 | 29.83 | 14 | SW | |||
| Reading | PA | 2026-05-04 13:00 | ASOS | 72 | 37 | 29 | 29.86 | 12 | SW | |||
| Reading | PA | 2026-05-04 12:54 | ASOS | 71 | 39 | 31 | 29.86 | 16 | SW | |||
| Reading | PA | 2026-05-04 12:50 | ASOS | 72 | 39 | 31 | 29.86 | 18 | SW | |||
| Reading | PA | 2026-05-04 12:45 | ASOS | 70 | 39 | 33 | 29.87 | 16 | SW | |||
| Reading | PA | 2026-05-04 12:40 | ASOS | 72 | 39 | 31 | 29.87 | 15 | SSW | |||
| Reading | PA | 2026-05-04 12:35 | ASOS | 70 | 39 | 33 | 29.87 | 12 | SW | |||
| Reading | PA | 2026-05-04 13:50 | ASOS | 73 | 39 | 29 | 29.84 | 13 | WSW | |||
| Reading | PA | 2026-05-04 14:00 | ASOS | 73 | 39 | 29 | 29.83 | 14 | WSW | |||
| Reading | PA | 2026-05-04 15:20 | ASOS | 75 | 39 | 27 | 29.80 | 17 | SW | |||
| Reading | PA | 2026-05-04 14:45 | ASOS | 73 | 39 | 29 | 29.81 | 20 | SW | |||
| Reading | PA | 2026-05-04 15:15 | ASOS | 73 | 39 | 29 | 29.81 | 18 | SSW | |||
| Reading | PA | 2026-05-04 15:10 | ASOS | 75 | 39 | 27 | 29.80 | 16 | SW | |||
| Reading | PA | 2026-05-04 15:05 | ASOS | 73 | 39 | 29 | 29.81 | 16 | SW | |||
| Reading | PA | 2026-05-04 15:00 | ASOS | 73 | 39 | 29 | 29.81 | 15 | SW | |||
| Reading | PA | 2026-05-04 14:54 | ASOS | 75 | 40 | 28 | 29.81 | 15 | SW | |||
| Reading | PA | 2026-05-04 14:50 | ASOS | 73 | 39 | 29 | 29.81 | 18 | SW | |||
| Reading | PA | 2026-05-04 14:40 | ASOS | 73 | 39 | 29 | 29.81 | 14 | SW | |||
| Reading | PA | 2026-05-04 14:05 | ASOS | 73 | 41 | 31 | 29.83 | 10 | SW | |||
| Reading | PA | 2026-05-04 14:35 | ASOS | 73 | 39 | 29 | 29.82 | 15 | SSW | |||
| Reading | PA | 2026-05-04 14:30 | ASOS | 73 | 39 | 29 | 29.82 | 14 | SW | |||
| Reading | PA | 2026-05-04 14:25 | ASOS | 73 | 39 | 29 | 29.82 | 16 | SW | |||
| Reading | PA | 2026-05-04 14:20 | ASOS | 73 | 41 | 31 | 29.82 | 15 | WSW | |||
| Reading | PA | 2026-05-04 14:15 | ASOS | 73 | 39 | 29 | 29.83 | 12 | SW | |||
| Reading | PA | 2026-05-04 14:10 | ASOS | 73 | 41 | 31 | 29.82 | 16 | SSW | |||
| Reading | PA | 2026-05-04 18:15 | ASOS | 73 | 39 | 29 | 29.76 | 14 | SSW | |||
| Reading | PA | 2026-05-04 18:25 | ASOS | 73 | 39 | 29 | 29.76 | 14 | S | |||
| Reading | PA | 2026-05-05 00:35 | ASOS | 64 | 43 | 45 | 29.80 | 12 | SSW | |||
| Reading | PA | 2026-05-04 22:15 | ASOS | 66 | 41 | 40 | 29.80 | 10 | SSE | |||
| Reading | PA | 2026-05-04 22:45 | ASOS | 64 | 41 | 42 | 29.80 | 7 | S | |||
| Reading | PA | 2026-05-04 22:40 | ASOS | 64 | 41 | 42 | 29.80 | 9 | SSE | |||
| Reading | PA | 2026-05-04 22:35 | ASOS | 66 | 41 | 40 | 29.80 | 8 | SSE | |||
| Reading | PA | 2026-05-04 22:30 | ASOS | 66 | 41 | 40 | 29.80 | 8 | SSE | |||
| Reading | PA | 2026-05-04 22:25 | ASOS | 66 | 41 | 40 | 29.80 | 8 | SSE | |||
| Reading | PA | 2026-05-04 22:20 | ASOS | 66 | 41 | 40 | 29.80 | 9 | SSE | |||
| Reading | PA | 2026-05-04 22:10 | ASOS | 66 | 39 | 37 | 29.81 | 9 | SSE | |||
| Reading | PA | 2026-05-04 22:54 | ASOS | 66 | 41 | 40 | 29.79 | 10 | S | |||
| Reading | PA | 2026-05-04 22:05 | ASOS | 66 | 39 | 37 | 29.81 | 12 | SSE | |||
| Reading | PA | 2026-05-04 22:00 | ASOS | 66 | 39 | 37 | 29.81 | 10 | S | |||
| Reading | PA | 2026-05-04 21:55 | ASOS | 66 | 39 | 37 | 29.81 | 10 | S | |||
| Reading | PA | 2026-05-04 21:54 | ASOS | 67 | 40 | 37 | 29.81 | 10 | S | |||
| Reading | PA | 2026-05-04 21:50 | ASOS | 66 | 39 | 37 | 29.81 | 9 | S | |||
| Reading | PA | 2026-05-04 21:45 | ASOS | 66 | 39 | 37 | 29.81 | 9 | S | |||
| Reading | PA | 2026-05-04 22:50 | ASOS | 64 | 41 | 42 | 29.79 | 8 | S | |||
| Reading | PA | 2026-05-04 22:55 | ASOS | 66 | 41 | 40 | 29.79 | 10 | S | |||
| Reading | PA | 2026-05-04 21:35 | ASOS | 66 | 39 | 37 | 29.81 | 9 | S | |||
| Reading | PA | 2026-05-04 23:50 | ASOS | 66 | ||||||||
| Reading | PA | 2026-05-05 00:30 | ASOS | 64 | 43 | 45 | 29.80 | 8 | S | |||
| Reading | PA | 2026-05-05 00:25 | ASOS | 64 | 43 | 45 | 29.80 | 10 | SSW | |||
| Reading | PA | 2026-05-05 00:20 | ASOS | 64 | 43 | 45 | 29.81 | 8 | SSW | |||
| Reading | PA | 2026-05-05 00:15 | ASOS | 64 | 43 | 45 | 29.81 | 9 | SSW | |||
| Reading | PA | 2026-05-05 00:05 | ASOS | 66 | 43 | 43 | 29.80 | 9 | S | |||
| Reading | PA | 2026-05-04 23:54 | ASOS | 66 | 42 | 42 | 29.80 | 9 | SSW | |||
| Reading | PA | 2026-05-04 23:35 | ASOS | 66 | 43 | 43 | 29.79 | 9 | SSW | |||
| Reading | PA | 2026-05-04 23:00 | ASOS | 66 | 41 | 40 | 29.79 | 8 | S | |||
| Reading | PA | 2026-05-04 23:30 | ASOS | 66 | 43 | 43 | 29.79 | 8 | S | |||
| Reading | PA | 2026-05-04 23:25 | ASOS | 66 | 41 | 40 | 29.79 | 10 | S | |||
| Reading | PA | 2026-05-04 23:20 | ASOS | 66 | 43 | 43 | 29.79 | 10 | S | |||
| Reading | PA | 2026-05-04 23:15 | ASOS | 66 | 43 | 43 | 29.80 | 9 | S | |||
| Reading | PA | 2026-05-04 23:10 | ASOS | 66 | 41 | 40 | 29.80 | 8 | S | |||
| Reading | PA | 2026-05-04 23:05 | ASOS | 66 | 41 | 40 | 29.79 | 9 | S | |||
| Reading | PA | 2026-05-04 21:40 | ASOS | 66 | 39 | 37 | 29.80 | 9 | S | |||
| Reading | PA | 2026-05-04 21:30 | ASOS | 66 | 39 | 37 | 29.81 | 10 | S | |||
| Reading | PA | 2026-05-04 18:30 | ASOS | 73 | 41 | 31 | 29.76 | 14 | S | |||
| Reading | PA | 2026-05-04 19:05 | ASOS | 72 | 41 | 33 | 29.77 | 10 | S | |||
| Reading | PA | 2026-05-04 19:35 | ASOS | 70 | 39 | 33 | 29.77 | 9 | S | |||
| Reading | PA | 2026-05-04 19:30 | ASOS | 72 | 39 | 31 | 29.77 | 14 | S | |||
| Reading | PA | 2026-05-04 19:25 | ASOS | 72 | 39 | 31 | 29.77 | 15 | S | |||
| Reading | PA | 2026-05-04 19:20 | ASOS | 72 | 39 | 31 | 29.77 | 12 | S | |||
| Reading | PA | 2026-05-04 19:15 | ASOS | 72 | 39 | 31 | 29.77 | 13 | S | |||
| Reading | PA | 2026-05-04 19:10 | ASOS | 72 | 41 | 33 | 29.77 | 12 | S | |||
| Reading | PA | 2026-05-04 19:00 | ASOS | 72 | 41 | 33 | 29.77 | 15 | SSW | |||
| Reading | PA | 2026-05-04 19:45 | ASOS | 70 | 39 | 33 | 29.77 | 10 | S | |||
| Reading | PA | 2026-05-04 18:55 | ASOS | 72 | 39 | 31 | 29.77 | 10 | S | |||
| Reading | PA | 2026-05-04 18:54 | ASOS | 72 | 40 | 31 | 29.77 | 13 | S | |||
| Reading | PA | 2026-05-04 18:50 | ASOS | 72 | 39 | 31 | 29.77 | 14 | S | |||
| Reading | PA | 2026-05-04 18:45 | ASOS | 72 | 41 | 33 | 29.77 | 14 | S | |||
| Reading | PA | 2026-05-04 18:40 | ASOS | 73 | 41 | 31 | 29.77 | 17 | S | |||
| Reading | PA | 2026-05-04 18:35 | ASOS | 73 | 41 | 31 | 29.77 | 13 | S | |||
| Reading | PA | 2026-05-04 19:40 | ASOS | 70 | 39 | 33 | 29.77 | 10 | S | |||
| Reading | PA | 2026-05-04 19:50 | ASOS | 70 | 39 | 33 | 29.77 | 10 | S | |||
| Reading | PA | 2026-05-04 21:25 | ASOS | 66 | 39 | 37 | 29.81 | 10 | S | |||
| Reading | PA | 2026-05-04 20:40 | ASOS | 66 | 41 | 40 | 29.80 | 8 | SSE | |||
| Reading | PA | 2026-05-04 21:20 | ASOS | 66 | 41 | 40 | 29.80 | 9 | S | |||
| Reading | PA | 2026-05-04 21:10 | ASOS | 66 | 41 | 40 | 29.80 | 10 | SSE | |||
| Reading | PA | 2026-05-04 21:05 | ASOS | 66 | 41 | 40 | 29.80 | 8 | SSE | |||
| Reading | PA | 2026-05-04 21:00 | ASOS | 66 | 41 | 40 | 29.80 | 8 | S | |||
| Reading | PA | 2026-05-04 20:54 | ASOS | 67 | 41 | 39 | 29.80 | 9 | SSE | |||
| Reading | PA | 2026-05-04 20:45 | ASOS | 66 | 41 | 40 | 29.80 | 9 | SSE | |||
| Reading | PA | 2026-05-04 20:30 | ASOS | 68 | 41 | 37 | 29.79 | 8 | SSE | |||
| Reading | PA | 2026-05-04 19:54 | ASOS | 70 | 40 | 33 | 29.78 | 8 | S | |||
| Reading | PA | 2026-05-04 20:25 | ASOS | 68 | 41 | 37 | 29.79 | 8 | S | |||
| Reading | PA | 2026-05-04 20:20 | ASOS | 68 | 41 | 37 | 29.79 | 8 | SSE | |||
| Reading | PA | 2026-05-04 20:15 | ASOS | 68 | 41 | 37 | 29.79 | 9 | SSE | |||
| Reading | PA | 2026-05-04 20:10 | ASOS | 70 | 41 | 35 | 29.78 | 10 | S | |||
| Reading | PA | 2026-05-04 20:05 | ASOS | 70 | 41 | 35 | 29.78 | 8 | S | |||
| Reading | PA | 2026-05-04 20:00 | ASOS | 70 | 39 | 33 | 29.78 | 9 | S | |||
| Reading | PA | 2026-05-04 19:55 | ASOS | 70 | 39 | 33 | 29.78 | 8 | S | |||
| Reading | PA | 2026-05-05 12:10 | ASOS | 82 | 50 | 33 | 29.80 | 13 | SSW |
data collection created in 0.042964935302734 (queried in 0.009683) rendered in: 0.00059986114501953

